sensor_id;sensor_type;location;lat;lon;timestamp;P1;durP1;ratioP1;P2;durP2;ratioP2
68300;SDS011;55146;47.468;18.806;2023-12-04T00:02:20;20.35;;;10.75;;
68300;SDS011;55146;47.468;18.806;2023-12-04T00:04:45;20.43;;;10.90;;
68300;SDS011;55146;47.468;18.806;2023-12-04T00:07:10;22.47;;;12.17;;
68300;SDS011;55146;47.468;18.806;2023-12-04T00:09:36;22.47;;;11.80;;
68300;SDS011;55146;47.468;18.806;2023-12-04T00:12:01;21.87;;;12.57;;
68300;SDS011;55146;47.468;18.806;2023-12-04T00:14:26;20.37;;;12.00;;
68300;SDS011;55146;47.468;18.806;2023-12-04T00:16:52;23.87;;;12.53;;
68300;SDS011;55146;47.468;18.806;2023-12-04T00:19:17;23.27;;;11.27;;
68300;SDS011;55146;47.468;18.806;2023-12-04T00:21:43;22.70;;;11.67;;
68300;SDS011;55146;47.468;18.806;2023-12-04T00:24:08;24.02;;;12.88;;
68300;SDS011;55146;47.468;18.806;2023-12-04T00:26:34;22.37;;;12.63;;
68300;SDS011;55146;47.468;18.806;2023-12-04T00:28:59;24.77;;;13.30;;
68300;SDS011;55146;47.468;18.806;2023-12-04T00:31:24;28.53;;;15.27;;
68300;SDS011;55146;47.468;18.806;2023-12-04T00:33:50;29.63;;;15.60;;
68300;SDS011;55146;47.468;18.806;2023-12-04T00:36:16;25.47;;;13.80;;
68300;SDS011;55146;47.468;18.806;2023-12-04T00:38:41;25.03;;;13.17;;
68300;SDS011;55146;47.468;18.806;2023-12-04T00:41:06;21.67;;;11.97;;
68300;SDS011;55146;47.468;18.806;2023-12-04T00:43:32;20.10;;;11.60;;
68300;SDS011;55146;47.468;18.806;2023-12-04T00:45:57;25.50;;;12.00;;
68300;SDS011;55146;47.468;18.806;2023-12-04T00:48:22;26.03;;;13.97;;
68300;SDS011;55146;47.468;18.806;2023-12-04T00:50:48;24.43;;;12.30;;
68300;SDS011;55146;47.468;18.806;2023-12-04T00:53:13;27.92;;;14.02;;
68300;SDS011;55146;47.468;18.806;2023-12-04T00:55:38;23.67;;;12.17;;
68300;SDS011;55146;47.468;18.806;2023-12-04T00:58:04;21.93;;;11.63;;
68300;SDS011;55146;47.468;18.806;2023-12-04T01:00:29;24.53;;;13.77;;
68300;SDS011;55146;47.468;18.806;2023-12-04T01:02:54;25.80;;;13.00;;
68300;SDS011;55146;47.468;18.806;2023-12-04T01:05:20;26.63;;;14.00;;
68300;SDS011;55146;47.468;18.806;2023-12-04T01:07:45;22.67;;;12.73;;
68300;SDS011;55146;47.468;18.806;2023-12-04T01:10:10;25.10;;;13.10;;
68300;SDS011;55146;47.468;18.806;2023-12-04T01:12:36;24.10;;;13.15;;
68300;SDS011;55146;47.468;18.806;2023-12-04T01:15:01;23.67;;;13.30;;
68300;SDS011;55146;47.468;18.806;2023-12-04T01:17:28;21.00;;;13.25;;
68300;SDS011;55146;47.468;18.806;2023-12-04T01:19:53;22.37;;;12.40;;
68300;SDS011;55146;47.468;18.806;2023-12-04T01:22:19;24.53;;;12.60;;
68300;SDS011;55146;47.468;18.806;2023-12-04T01:24:44;24.27;;;13.60;;
68300;SDS011;55146;47.468;18.806;2023-12-04T01:27:09;19.40;;;10.93;;
68300;SDS011;55146;47.468;18.806;2023-12-04T01:29:35;23.02;;;11.95;;
68300;SDS011;55146;47.468;18.806;2023-12-04T01:32:01;23.73;;;13.10;;
68300;SDS011;55146;47.468;18.806;2023-12-04T01:34:26;21.17;;;12.00;;
68300;SDS011;55146;47.468;18.806;2023-12-04T01:36:51;20.62;;;10.88;;
68300;SDS011;55146;47.468;18.806;2023-12-04T01:39:17;21.80;;;11.30;;
68300;SDS011;55146;47.468;18.806;2023-12-04T01:41:42;22.67;;;11.87;;
68300;SDS011;55146;47.468;18.806;2023-12-04T01:44:08;25.43;;;13.20;;
68300;SDS011;55146;47.468;18.806;2023-12-04T01:46:33;22.80;;;11.53;;
68300;SDS011;55146;47.468;18.806;2023-12-04T01:48:58;19.85;;;10.63;;
68300;SDS011;55146;47.468;18.806;2023-12-04T01:51:25;18.63;;;9.73;;
68300;SDS011;55146;47.468;18.806;2023-12-04T01:53:52;18.62;;;10.60;;
68300;SDS011;55146;47.468;18.806;2023-12-04T01:56:18;23.02;;;11.18;;
68300;SDS011;55146;47.468;18.806;2023-12-04T01:58:45;20.27;;;10.90;;
68300;SDS011;55146;47.468;18.806;2023-12-04T02:01:11;19.62;;;11.50;;
68300;SDS011;55146;47.468;18.806;2023-12-04T02:03:36;21.05;;;11.70;;
68300;SDS011;55146;47.468;18.806;2023-12-04T02:06:02;19.03;;;11.67;;
68300;SDS011;55146;47.468;18.806;2023-12-04T02:08:29;19.77;;;10.63;;
68300;SDS011;55146;47.468;18.806;2023-12-04T02:10:58;22.05;;;11.82;;
68300;SDS011;55146;47.468;18.806;2023-12-04T02:13:24;20.90;;;10.82;;
68300;SDS011;55146;47.468;18.806;2023-12-04T02:15:51;23.20;;;10.60;;
68300;SDS011;55146;47.468;18.806;2023-12-04T02:18:19;22.67;;;10.80;;
68300;SDS011;55146;47.468;18.806;2023-12-04T02:20:45;23.67;;;12.67;;
68300;SDS011;55146;47.468;18.806;2023-12-04T02:23:10;20.85;;;10.90;;
68300;SDS011;55146;47.468;18.806;2023-12-04T02:25:36;21.10;;;11.23;;
68300;SDS011;55146;47.468;18.806;2023-12-04T02:28:01;21.53;;;10.60;;
68300;SDS011;55146;47.468;18.806;2023-12-04T02:30:31;21.85;;;11.93;;
68300;SDS011;55146;47.468;18.806;2023-12-04T02:33:01;20.00;;;10.10;;
68300;SDS011;55146;47.468;18.806;2023-12-04T02:35:30;20.80;;;11.68;;
68300;SDS011;55146;47.468;18.806;2023-12-04T02:37:57;20.63;;;10.10;;
68300;SDS011;55146;47.468;18.806;2023-12-04T02:40:23;23.95;;;11.18;;
68300;SDS011;55146;47.468;18.806;2023-12-04T02:42:50;21.27;;;9.93;;
68300;SDS011;55146;47.468;18.806;2023-12-04T02:45:15;23.33;;;11.37;;
68300;SDS011;55146;47.468;18.806;2023-12-04T02:47:41;20.43;;;10.43;;
68300;SDS011;55146;47.468;18.806;2023-12-04T02:50:06;23.53;;;11.03;;
68300;SDS011;55146;47.468;18.806;2023-12-04T02:52:32;20.75;;;10.60;;
68300;SDS011;55146;47.468;18.806;2023-12-04T02:54:57;22.47;;;11.83;;
68300;SDS011;55146;47.468;18.806;2023-12-04T02:57:22;22.37;;;10.90;;
68300;SDS011;55146;47.468;18.806;2023-12-04T02:59:48;22.10;;;11.20;;
68300;SDS011;55146;47.468;18.806;2023-12-04T03:02:14;19.85;;;10.32;;
68300;SDS011;55146;47.468;18.806;2023-12-04T03:04:39;21.07;;;11.33;;
68300;SDS011;55146;47.468;18.806;2023-12-04T03:07:04;22.43;;;11.20;;
68300;SDS011;55146;47.468;18.806;2023-12-04T03:09:30;20.48;;;11.85;;
68300;SDS011;55146;47.468;18.806;2023-12-04T03:11:55;19.17;;;10.90;;
68300;SDS011;55146;47.468;18.806;2023-12-04T03:14:21;21.83;;;10.50;;
68300;SDS011;55146;47.468;18.806;2023-12-04T03:16:46;25.17;;;11.97;;
68300;SDS011;55146;47.468;18.806;2023-12-04T03:19:11;21.77;;;11.37;;
68300;SDS011;55146;47.468;18.806;2023-12-04T03:21:37;22.37;;;11.40;;
68300;SDS011;55146;47.468;18.806;2023-12-04T03:24:02;26.67;;;13.40;;
68300;SDS011;55146;47.468;18.806;2023-12-04T03:26:27;19.48;;;11.25;;
68300;SDS011;55146;47.468;18.806;2023-12-04T03:28:53;21.30;;;11.33;;
68300;SDS011;55146;47.468;18.806;2023-12-04T03:31:19;25.80;;;13.25;;
68300;SDS011;55146;47.468;18.806;2023-12-04T03:33:44;26.08;;;13.43;;
68300;SDS011;55146;47.468;18.806;2023-12-04T03:36:09;22.60;;;11.87;;
68300;SDS011;55146;47.468;18.806;2023-12-04T03:38:35;23.83;;;11.73;;
68300;SDS011;55146;47.468;18.806;2023-12-04T03:41:00;21.43;;;11.47;;
68300;SDS011;55146;47.468;18.806;2023-12-04T03:43:25;26.63;;;14.00;;
68300;SDS011;55146;47.468;18.806;2023-12-04T03:45:51;23.37;;;13.57;;
68300;SDS011;55146;47.468;18.806;2023-12-04T03:48:16;20.80;;;11.20;;
68300;SDS011;55146;47.468;18.806;2023-12-04T03:50:41;24.27;;;12.37;;
68300;SDS011;55146;47.468;18.806;2023-12-04T03:53:07;21.63;;;11.20;;
68300;SDS011;55146;47.468;18.806;2023-12-04T03:55:32;21.53;;;11.57;;
68300;SDS011;55146;47.468;18.806;2023-12-04T03:57:58;25.77;;;11.57;;
68300;SDS011;55146;47.468;18.806;2023-12-04T04:00:24;23.75;;;12.82;;
68300;SDS011;55146;47.468;18.806;2023-12-04T04:02:49;22.07;;;12.53;;
68300;SDS011;55146;47.468;18.806;2023-12-04T04:05:15;22.50;;;11.53;;
68300;SDS011;55146;47.468;18.806;2023-12-04T04:07:40;23.60;;;11.77;;
68300;SDS011;55146;47.468;18.806;2023-12-04T04:10:06;25.58;;;12.73;;
68300;SDS011;55146;47.468;18.806;2023-12-04T04:12:32;20.30;;;11.73;;
68300;SDS011;55146;47.468;18.806;2023-12-04T04:14:58;21.83;;;11.13;;
68300;SDS011;55146;47.468;18.806;2023-12-04T04:17:23;20.98;;;12.40;;
68300;SDS011;55146;47.468;18.806;2023-12-04T04:19:52;21.73;;;11.50;;
68300;SDS011;55146;47.468;18.806;2023-12-04T04:22:18;23.70;;;12.37;;
68300;SDS011;55146;47.468;18.806;2023-12-04T04:24:47;24.42;;;11.27;;
68300;SDS011;55146;47.468;18.806;2023-12-04T04:27:13;19.00;;;10.35;;
68300;SDS011;55146;47.468;18.806;2023-12-04T04:29:38;25.17;;;11.50;;
68300;SDS011;55146;47.468;18.806;2023-12-04T04:32:04;19.47;;;10.77;;
68300;SDS011;55146;47.468;18.806;2023-12-04T04:34:30;22.60;;;11.77;;
68300;SDS011;55146;47.468;18.806;2023-12-04T04:36:55;25.03;;;13.00;;
68300;SDS011;55146;47.468;18.806;2023-12-04T04:39:20;23.00;;;12.93;;
68300;SDS011;55146;47.468;18.806;2023-12-04T04:41:46;23.87;;;12.73;;
68300;SDS011;55146;47.468;18.806;2023-12-04T04:44:11;21.63;;;11.90;;
68300;SDS011;55146;47.468;18.806;2023-12-04T04:46:36;25.58;;;12.20;;
68300;SDS011;55146;47.468;18.806;2023-12-04T04:49:02;22.43;;;12.67;;
68300;SDS011;55146;47.468;18.806;2023-12-04T04:51:31;22.00;;;12.63;;
68300;SDS011;55146;47.468;18.806;2023-12-04T04:53:56;23.97;;;12.43;;
68300;SDS011;55146;47.468;18.806;2023-12-04T04:56:22;24.43;;;12.17;;
68300;SDS011;55146;47.468;18.806;2023-12-04T04:58:47;24.93;;;13.40;;
68300;SDS011;55146;47.468;18.806;2023-12-04T05:01:12;29.80;;;15.53;;
68300;SDS011;55146;47.468;18.806;2023-12-04T05:03:38;30.60;;;15.20;;
68300;SDS011;55146;47.468;18.806;2023-12-04T05:06:03;32.57;;;16.07;;
68300;SDS011;55146;47.468;18.806;2023-12-04T05:08:29;31.50;;;16.10;;
68300;SDS011;55146;47.468;18.806;2023-12-04T05:10:54;34.63;;;16.73;;
68300;SDS011;55146;47.468;18.806;2023-12-04T05:13:20;29.87;;;14.03;;
68300;SDS011;55146;47.468;18.806;2023-12-04T05:15:45;29.95;;;14.27;;
68300;SDS011;55146;47.468;18.806;2023-12-04T05:18:10;28.90;;;14.33;;
68300;SDS011;55146;47.468;18.806;2023-12-04T05:20:36;29.80;;;15.33;;
68300;SDS011;55146;47.468;18.806;2023-12-04T05:23:01;27.07;;;12.87;;
68300;SDS011;55146;47.468;18.806;2023-12-04T05:25:26;23.23;;;13.97;;
68300;SDS011;55146;47.468;18.806;2023-12-04T05:27:52;26.00;;;14.53;;
68300;SDS011;55146;47.468;18.806;2023-12-04T05:30:17;26.50;;;13.15;;
68300;SDS011;55146;47.468;18.806;2023-12-04T05:32:43;28.07;;;13.97;;
68300;SDS011;55146;47.468;18.806;2023-12-04T05:35:08;39.30;;;17.00;;
68300;SDS011;55146;47.468;18.806;2023-12-04T05:37:34;36.10;;;16.92;;
68300;SDS011;55146;47.468;18.806;2023-12-04T05:39:59;32.00;;;16.63;;
68300;SDS011;55146;47.468;18.806;2023-12-04T05:42:24;35.63;;;14.87;;
68300;SDS011;55146;47.468;18.806;2023-12-04T05:44:50;30.40;;;15.17;;
68300;SDS011;55146;47.468;18.806;2023-12-04T05:47:15;33.73;;;15.47;;
68300;SDS011;55146;47.468;18.806;2023-12-04T05:49:41;35.83;;;16.53;;
68300;SDS011;55146;47.468;18.806;2023-12-04T05:52:06;29.08;;;13.77;;
68300;SDS011;55146;47.468;18.806;2023-12-04T05:54:31;30.17;;;13.93;;
68300;SDS011;55146;47.468;18.806;2023-12-04T05:56:57;31.13;;;15.20;;
68300;SDS011;55146;47.468;18.806;2023-12-04T05:59:23;24.85;;;14.18;;
68300;SDS011;55146;47.468;18.806;2023-12-04T06:01:48;27.00;;;13.97;;
68300;SDS011;55146;47.468;18.806;2023-12-04T06:04:13;31.20;;;15.23;;
68300;SDS011;55146;47.468;18.806;2023-12-04T06:06:39;26.93;;;14.60;;
68300;SDS011;55146;47.468;18.806;2023-12-04T06:09:04;28.00;;;14.33;;
68300;SDS011;55146;47.468;18.806;2023-12-04T06:11:30;26.98;;;13.80;;
68300;SDS011;55146;47.468;18.806;2023-12-04T06:13:55;25.23;;;13.67;;
68300;SDS011;55146;47.468;18.806;2023-12-04T06:16:21;30.90;;;14.57;;
68300;SDS011;55146;47.468;18.806;2023-12-04T06:18:46;29.95;;;14.63;;
68300;SDS011;55146;47.468;18.806;2023-12-04T06:21:11;27.20;;;12.70;;
68300;SDS011;55146;47.468;18.806;2023-12-04T06:23:37;33.83;;;16.63;;
68300;SDS011;55146;47.468;18.806;2023-12-04T06:26:02;38.30;;;19.10;;
68300;SDS011;55146;47.468;18.806;2023-12-04T06:28:28;42.67;;;19.30;;
68300;SDS011;55146;47.468;18.806;2023-12-04T06:30:54;42.53;;;19.67;;
68300;SDS011;55146;47.468;18.806;2023-12-04T06:33:19;45.93;;;20.47;;
68300;SDS011;55146;47.468;18.806;2023-12-04T06:35:45;57.83;;;23.08;;
68300;SDS011;55146;47.468;18.806;2023-12-04T06:38:11;51.50;;;25.07;;
68300;SDS011;55146;47.468;18.806;2023-12-04T06:40:40;49.50;;;22.42;;
68300;SDS011;55146;47.468;18.806;2023-12-04T06:43:05;49.97;;;23.23;;
68300;SDS011;55146;47.468;18.806;2023-12-04T06:45:31;48.20;;;22.80;;
68300;SDS011;55146;47.468;18.806;2023-12-04T06:47:57;46.40;;;22.27;;
68300;SDS011;55146;47.468;18.806;2023-12-04T06:50:24;48.87;;;23.33;;
68300;SDS011;55146;47.468;18.806;2023-12-04T06:52:49;43.17;;;20.47;;
68300;SDS011;55146;47.468;18.806;2023-12-04T06:55:14;42.30;;;23.57;;
68300;SDS011;55146;47.468;18.806;2023-12-04T06:57:40;37.65;;;19.25;;
68300;SDS011;55146;47.468;18.806;2023-12-04T07:00:06;43.00;;;17.43;;
68300;SDS011;55146;47.468;18.806;2023-12-04T07:02:32;37.80;;;18.27;;
68300;SDS011;55146;47.468;18.806;2023-12-04T07:04:57;30.67;;;16.10;;
68300;SDS011;55146;47.468;18.806;2023-12-04T07:07:23;32.53;;;15.87;;
68300;SDS011;55146;47.468;18.806;2023-12-04T07:09:48;32.00;;;16.50;;
68300;SDS011;55146;47.468;18.806;2023-12-04T07:12:13;33.10;;;18.40;;
68300;SDS011;55146;47.468;18.806;2023-12-04T07:14:39;38.40;;;19.53;;
68300;SDS011;55146;47.468;18.806;2023-12-04T07:17:04;38.80;;;20.33;;
68300;SDS011;55146;47.468;18.806;2023-12-04T07:19:29;41.93;;;21.67;;
68300;SDS011;55146;47.468;18.806;2023-12-04T07:21:55;39.92;;;20.12;;
68300;SDS011;55146;47.468;18.806;2023-12-04T07:24:21;39.90;;;22.10;;
68300;SDS011;55146;47.468;18.806;2023-12-04T07:26:46;48.03;;;22.00;;
68300;SDS011;55146;47.468;18.806;2023-12-04T07:29:12;47.57;;;23.70;;
68300;SDS011;55146;47.468;18.806;2023-12-04T07:31:37;64.10;;;31.90;;
68300;SDS011;55146;47.468;18.806;2023-12-04T07:34:02;60.07;;;29.60;;
68300;SDS011;55146;47.468;18.806;2023-12-04T07:36:28;52.33;;;25.73;;
68300;SDS011;55146;47.468;18.806;2023-12-04T07:38:54;39.97;;;19.87;;
68300;SDS011;55146;47.468;18.806;2023-12-04T07:41:19;38.85;;;20.83;;
68300;SDS011;55146;47.468;18.806;2023-12-04T07:43:46;45.33;;;21.37;;
68300;SDS011;55146;47.468;18.806;2023-12-04T07:46:11;37.88;;;19.50;;
68300;SDS011;55146;47.468;18.806;2023-12-04T07:48:37;40.40;;;21.35;;
68300;SDS011;55146;47.468;18.806;2023-12-04T07:51:02;46.37;;;23.27;;
68300;SDS011;55146;47.468;18.806;2023-12-04T07:53:28;44.83;;;22.92;;
68300;SDS011;55146;47.468;18.806;2023-12-04T07:55:54;40.43;;;20.17;;
68300;SDS011;55146;47.468;18.806;2023-12-04T07:58:19;44.43;;;20.57;;
68300;SDS011;55146;47.468;18.806;2023-12-04T08:00:44;43.33;;;22.40;;
68300;SDS011;55146;47.468;18.806;2023-12-04T08:03:10;40.90;;;22.10;;
68300;SDS011;55146;47.468;18.806;2023-12-04T08:05:35;42.17;;;21.48;;
68300;SDS011;55146;47.468;18.806;2023-12-04T08:08:01;41.40;;;20.13;;
68300;SDS011;55146;47.468;18.806;2023-12-04T08:10:26;38.55;;;19.75;;
68300;SDS011;55146;47.468;18.806;2023-12-04T08:12:52;33.53;;;18.58;;
68300;SDS011;55146;47.468;18.806;2023-12-04T08:15:17;38.60;;;18.73;;
68300;SDS011;55146;47.468;18.806;2023-12-04T08:17:42;32.03;;;16.80;;
68300;SDS011;55146;47.468;18.806;2023-12-04T08:20:08;31.97;;;17.50;;
68300;SDS011;55146;47.468;18.806;2023-12-04T08:22:38;29.67;;;16.65;;
68300;SDS011;55146;47.468;18.806;2023-12-04T08:25:05;26.23;;;13.68;;
68300;SDS011;55146;47.468;18.806;2023-12-04T08:27:32;28.53;;;15.77;;
68300;SDS011;55146;47.468;18.806;2023-12-04T08:29:57;35.38;;;16.50;;
68300;SDS011;55146;47.468;18.806;2023-12-04T08:32:23;30.10;;;15.90;;
68300;SDS011;55146;47.468;18.806;2023-12-04T08:34:48;27.40;;;13.50;;
68300;SDS011;55146;47.468;18.806;2023-12-04T08:37:14;27.37;;;13.40;;
68300;SDS011;55146;47.468;18.806;2023-12-04T08:39:39;20.13;;;12.97;;
68300;SDS011;55146;47.468;18.806;2023-12-04T08:42:04;25.53;;;11.93;;
68300;SDS011;55146;47.468;18.806;2023-12-04T08:44:30;19.23;;;10.97;;
68300;SDS011;55146;47.468;18.806;2023-12-04T08:46:55;21.13;;;10.00;;
68300;SDS011;55146;47.468;18.806;2023-12-04T08:49:22;20.92;;;11.75;;
68300;SDS011;55146;47.468;18.806;2023-12-04T08:51:48;23.80;;;13.55;;
68300;SDS011;55146;47.468;18.806;2023-12-04T08:54:13;20.73;;;12.40;;
68300;SDS011;55146;47.468;18.806;2023-12-04T08:56:39;26.07;;;11.30;;
68300;SDS011;55146;47.468;18.806;2023-12-04T08:59:04;26.10;;;14.10;;
68300;SDS011;55146;47.468;18.806;2023-12-04T09:01:29;24.13;;;12.17;;
68300;SDS011;55146;47.468;18.806;2023-12-04T09:03:54;21.27;;;12.03;;
68300;SDS011;55146;47.468;18.806;2023-12-04T09:06:21;22.55;;;12.23;;
68300;SDS011;55146;47.468;18.806;2023-12-04T09:08:46;20.60;;;11.07;;
68300;SDS011;55146;47.468;18.806;2023-12-04T09:11:11;24.20;;;12.80;;
68300;SDS011;55146;47.468;18.806;2023-12-04T09:13:37;29.27;;;14.13;;
68300;SDS011;55146;47.468;18.806;2023-12-04T09:16:03;23.10;;;12.57;;
68300;SDS011;55146;47.468;18.806;2023-12-04T09:18:29;25.80;;;13.07;;
68300;SDS011;55146;47.468;18.806;2023-12-04T09:20:54;25.80;;;13.43;;
68300;SDS011;55146;47.468;18.806;2023-12-04T09:23:20;32.43;;;16.90;;
68300;SDS011;55146;47.468;18.806;2023-12-04T09:25:45;28.47;;;15.10;;
68300;SDS011;55146;47.468;18.806;2023-12-04T09:28:10;36.63;;;16.73;;
68300;SDS011;55146;47.468;18.806;2023-12-04T09:30:36;28.40;;;13.48;;
68300;SDS011;55146;47.468;18.806;2023-12-04T09:33:02;21.87;;;11.60;;
68300;SDS011;55146;47.468;18.806;2023-12-04T09:35:28;23.62;;;13.85;;
68300;SDS011;55146;47.468;18.806;2023-12-04T09:37:53;23.33;;;12.10;;
68300;SDS011;55146;47.468;18.806;2023-12-04T09:40:19;16.50;;;9.23;;
68300;SDS011;55146;47.468;18.806;2023-12-04T09:42:44;22.55;;;10.75;;
68300;SDS011;55146;47.468;18.806;2023-12-04T09:45:10;20.10;;;9.80;;
68300;SDS011;55146;47.468;18.806;2023-12-04T09:47:37;16.98;;;9.85;;
68300;SDS011;55146;47.468;18.806;2023-12-04T09:50:03;15.17;;;8.90;;
68300;SDS011;55146;47.468;18.806;2023-12-04T09:52:30;17.08;;;9.57;;
68300;SDS011;55146;47.468;18.806;2023-12-04T09:54:56;17.17;;;10.20;;
68300;SDS011;55146;47.468;18.806;2023-12-04T09:57:22;14.77;;;9.17;;
68300;SDS011;55146;47.468;18.806;2023-12-04T09:59:49;17.40;;;10.30;;
68300;SDS011;55146;47.468;18.806;2023-12-04T10:02:16;21.73;;;11.15;;
68300;SDS011;55146;47.468;18.806;2023-12-04T10:04:42;17.05;;;9.43;;
68300;SDS011;55146;47.468;18.806;2023-12-04T10:07:07;17.20;;;9.43;;
68300;SDS011;55146;47.468;18.806;2023-12-04T10:09:33;17.40;;;9.77;;
68300;SDS011;55146;47.468;18.806;2023-12-04T10:11:58;18.73;;;10.87;;
68300;SDS011;55146;47.468;18.806;2023-12-04T10:14:25;16.87;;;10.40;;
68300;SDS011;55146;47.468;18.806;2023-12-04T10:16:50;17.83;;;10.73;;
68300;SDS011;55146;47.468;18.806;2023-12-04T10:19:21;16.37;;;9.47;;
68300;SDS011;55146;47.468;18.806;2023-12-04T10:21:50;17.62;;;9.55;;
68300;SDS011;55146;47.468;18.806;2023-12-04T10:26:54;16.20;;;10.07;;
68300;SDS011;55146;47.468;18.806;2023-12-04T10:29:48;22.85;;;10.38;;
68300;SDS011;55146;47.468;18.806;2023-12-04T10:32:18;16.60;;;11.02;;
68300;SDS011;55146;47.468;18.806;2023-12-04T10:34:47;17.33;;;11.23;;
68300;SDS011;55146;47.468;18.806;2023-12-04T10:37:13;17.70;;;10.75;;
68300;SDS011;55146;47.468;18.806;2023-12-04T10:39:46;15.10;;;9.23;;
68300;SDS011;55146;47.468;18.806;2023-12-04T10:42:22;13.77;;;8.85;;
68300;SDS011;55146;47.468;18.806;2023-12-04T10:44:49;15.25;;;9.13;;
68300;SDS011;55146;47.468;18.806;2023-12-04T10:47:15;17.10;;;10.00;;
68300;SDS011;55146;47.468;18.806;2023-12-04T10:49:41;13.67;;;8.37;;
68300;SDS011;55146;47.468;18.806;2023-12-04T10:52:08;15.50;;;8.75;;
68300;SDS011;55146;47.468;18.806;2023-12-04T10:54:34;14.40;;;7.53;;
68300;SDS011;55146;47.468;18.806;2023-12-04T10:57:00;15.63;;;7.87;;
68300;SDS011;55146;47.468;18.806;2023-12-04T10:59:28;12.13;;;7.28;;
68300;SDS011;55146;47.468;18.806;2023-12-04T11:02:01;12.85;;;8.13;;
68300;SDS011;55146;47.468;18.806;2023-12-04T11:04:30;14.70;;;7.47;;
68300;SDS011;55146;47.468;18.806;2023-12-04T11:06:57;14.05;;;8.02;;
68300;SDS011;55146;47.468;18.806;2023-12-04T11:09:25;14.77;;;7.90;;
68300;SDS011;55146;47.468;18.806;2023-12-04T11:11:55;15.60;;;8.05;;
68300;SDS011;55146;47.468;18.806;2023-12-04T11:14:24;12.23;;;7.68;;
68300;SDS011;55146;47.468;18.806;2023-12-04T11:16:57;14.10;;;8.73;;
68300;SDS011;55146;47.468;18.806;2023-12-04T11:22:17;12.23;;;7.12;;
68300;SDS011;55146;47.468;18.806;2023-12-04T11:24:45;12.98;;;7.45;;
68300;SDS011;55146;47.468;18.806;2023-12-04T11:27:15;15.55;;;8.25;;
68300;SDS011;55146;47.468;18.806;2023-12-04T11:29:42;15.55;;;9.45;;
68300;SDS011;55146;47.468;18.806;2023-12-04T11:32:12;13.55;;;8.45;;
68300;SDS011;55146;47.468;18.806;2023-12-04T11:34:47;14.95;;;8.57;;
68300;SDS011;55146;47.468;18.806;2023-12-04T11:37:16;14.13;;;7.97;;
68300;SDS011;55146;47.468;18.806;2023-12-04T11:39:42;14.60;;;7.62;;
68300;SDS011;55146;47.468;18.806;2023-12-04T11:42:08;12.80;;;7.83;;
68300;SDS011;55146;47.468;18.806;2023-12-04T11:44:34;13.20;;;7.50;;
68300;SDS011;55146;47.468;18.806;2023-12-04T11:47:04;12.90;;;7.60;;
68300;SDS011;55146;47.468;18.806;2023-12-04T11:49:31;15.55;;;7.45;;
68300;SDS011;55146;47.468;18.806;2023-12-04T11:51:57;13.90;;;8.30;;
68300;SDS011;55146;47.468;18.806;2023-12-04T11:54:24;14.65;;;7.62;;
68300;SDS011;55146;47.468;18.806;2023-12-04T11:57:19;16.30;;;8.75;;
68300;SDS011;55146;47.468;18.806;2023-12-04T11:59:49;16.20;;;8.67;;
68300;SDS011;55146;47.468;18.806;2023-12-04T12:02:15;18.67;;;10.13;;
68300;SDS011;55146;47.468;18.806;2023-12-04T12:04:40;14.67;;;9.37;;
68300;SDS011;55146;47.468;18.806;2023-12-04T12:07:06;18.17;;;9.80;;
68300;SDS011;55146;47.468;18.806;2023-12-04T12:09:34;17.10;;;10.50;;
68300;SDS011;55146;47.468;18.806;2023-12-04T12:12:03;19.30;;;11.98;;
68300;SDS011;55146;47.468;18.806;2023-12-04T12:14:29;26.48;;;11.80;;
68300;SDS011;55146;47.468;18.806;2023-12-04T12:16:55;17.98;;;9.93;;
68300;SDS011;55146;47.468;18.806;2023-12-04T12:19:21;18.33;;;11.20;;
68300;SDS011;55146;47.468;18.806;2023-12-04T12:21:47;19.02;;;10.85;;
68300;SDS011;55146;47.468;18.806;2023-12-04T12:24:14;16.48;;;10.55;;
68300;SDS011;55146;47.468;18.806;2023-12-04T12:26:40;16.77;;;11.10;;
68300;SDS011;55146;47.468;18.806;2023-12-04T12:29:06;24.53;;;12.70;;
68300;SDS011;55146;47.468;18.806;2023-12-04T12:31:34;21.62;;;11.35;;
68300;SDS011;55146;47.468;18.806;2023-12-04T12:33:59;18.80;;;10.70;;
68300;SDS011;55146;47.468;18.806;2023-12-04T12:36:25;15.03;;;9.63;;
68300;SDS011;55146;47.468;18.806;2023-12-04T12:38:50;18.65;;;10.02;;
68300;SDS011;55146;47.468;18.806;2023-12-04T12:41:16;15.87;;;9.97;;
68300;SDS011;55146;47.468;18.806;2023-12-04T12:43:43;20.10;;;10.02;;
68300;SDS011;55146;47.468;18.806;2023-12-04T12:46:10;15.00;;;9.25;;
68300;SDS011;55146;47.468;18.806;2023-12-04T12:48:36;17.60;;;11.07;;
68300;SDS011;55146;47.468;18.806;2023-12-04T12:51:02;17.10;;;9.05;;
68300;SDS011;55146;47.468;18.806;2023-12-04T12:53:28;15.20;;;9.30;;
68300;SDS011;55146;47.468;18.806;2023-12-04T12:55:53;16.80;;;8.90;;
68300;SDS011;55146;47.468;18.806;2023-12-04T12:58:18;18.27;;;10.53;;
68300;SDS011;55146;47.468;18.806;2023-12-04T13:00:45;18.83;;;10.93;;
68300;SDS011;55146;47.468;18.806;2023-12-04T13:03:15;16.17;;;10.13;;
68300;SDS011;55146;47.468;18.806;2023-12-04T13:05:41;18.93;;;10.60;;
68300;SDS011;55146;47.468;18.806;2023-12-04T13:08:06;17.85;;;11.32;;
68300;SDS011;55146;47.468;18.806;2023-12-04T13:10:31;20.57;;;11.43;;
68300;SDS011;55146;47.468;18.806;2023-12-04T13:12:57;24.03;;;11.13;;
68300;SDS011;55146;47.468;18.806;2023-12-04T13:15:24;20.75;;;11.48;;
68300;SDS011;55146;47.468;18.806;2023-12-04T13:17:50;24.97;;;14.23;;
68300;SDS011;55146;47.468;18.806;2023-12-04T13:20:15;28.43;;;13.23;;
68300;SDS011;55146;47.468;18.806;2023-12-04T13:22:42;40.47;;;16.12;;
68300;SDS011;55146;47.468;18.806;2023-12-04T13:25:07;47.23;;;18.40;;
68300;SDS011;55146;47.468;18.806;2023-12-04T13:27:35;34.90;;;15.30;;
68300;SDS011;55146;47.468;18.806;2023-12-04T13:30:04;25.92;;;13.40;;
68300;SDS011;55146;47.468;18.806;2023-12-04T13:32:30;25.75;;;13.98;;
68300;SDS011;55146;47.468;18.806;2023-12-04T13:34:58;27.85;;;14.70;;
68300;SDS011;55146;47.468;18.806;2023-12-04T13:37:23;50.47;;;21.15;;
68300;SDS011;55146;47.468;18.806;2023-12-04T13:39:50;31.23;;;17.67;;
68300;SDS011;55146;47.468;18.806;2023-12-04T13:42:22;28.05;;;14.18;;
68300;SDS011;55146;47.468;18.806;2023-12-04T13:45:06;22.87;;;12.23;;
68300;SDS011;55146;47.468;18.806;2023-12-04T13:47:34;29.08;;;14.93;;
68300;SDS011;55146;47.468;18.806;2023-12-04T13:50:00;29.83;;;15.17;;
68300;SDS011;55146;47.468;18.806;2023-12-04T13:52:25;24.47;;;13.90;;
68300;SDS011;55146;47.468;18.806;2023-12-04T13:54:54;26.42;;;15.10;;
68300;SDS011;55146;47.468;18.806;2023-12-04T13:57:20;31.70;;;17.10;;
68300;SDS011;55146;47.468;18.806;2023-12-04T14:00:00;29.92;;;15.93;;
68300;SDS011;55146;47.468;18.806;2023-12-04T14:02:26;25.30;;;13.73;;
68300;SDS011;55146;47.468;18.806;2023-12-04T14:04:51;20.93;;;11.20;;
68300;SDS011;55146;47.468;18.806;2023-12-04T14:07:17;21.48;;;10.57;;
68300;SDS011;55146;47.468;18.806;2023-12-04T14:09:43;18.83;;;10.43;;
68300;SDS011;55146;47.468;18.806;2023-12-04T14:12:10;19.83;;;11.20;;